Cheshire, Oregon
Current Conditions -  °F | °C
As of 4:54 PM on Wednesday 17 Dec 2014 (Local Time) from KEUG Reporting Station
Light Rain Light Rain  
Wind Chill:   Ceiling: 3700
Heat Index:   Visibility: 8mi
Dew Point:   Wind: 8mph
Humidity: 86%   Direction: 180°S
Pressure: 29.94"   Gusts: NA
Location:  44.19°N, 123.29°W
Report Text: KEUG 180054Z 18007KT 8SM -RA FEW026 OVC037 09/07 A2994 RMK AO2 RAB20 SLP139 P0002 T00940072
Loading
Personal Weather Stations






























Interactive Weather Map New forecast layout! Learn more

10-Day Weather Forecast

Advertisements
Track Severe Weather on mobile